Time;durP1;ratioP1;P1;durP2;ratioP2;P2;SDS_P1;SDS_P2;PMS_P1;PMS_P2;Temp;Humidity;BMP_temperature;BMP_pressure;BME280_temperature;BME280_humidity;BME280_pressure;Samples;Min_cycle;Max_cycle;Signal;HPM_P1;HPM_P2
2023/11/26 00:02:22;;;;;;;38.80;17.50;;;;;;;-147.86;100.00;51897.42;105539;1256;70264;-44
2023/11/26 00:04:50;;;;;;;34.10;17.20;;;;;;;-147.86;100.00;51919.00;105655;1260;60541;-44
2023/11/26 00:07:17;;;;;;;31.60;16.00;;;;;;;-147.86;100.00;51942.54;105621;1255;60299;-46
2023/11/26 00:09:45;;;;;;;43.20;22.00;;;;;;;-147.86;100.00;51958.24;105630;1255;72823;-46
2023/11/26 00:12:13;;;;;;;34.10;16.60;;;;;;;-147.86;100.00;51991.99;105645;1255;64005;-46
2023/11/26 00:14:41;;;;;;;23.50;13.40;;;;;;;-147.86;100.00;51987.68;105630;1256;72681;-45
2023/11/26 00:17:09;;;;;;;29.10;14.40;;;;;;;-147.86;100.00;52024.18;105660;1256;60441;-45
2023/11/26 00:19:37;;;;;;;22.90;12.10;;;;;;;-147.86;100.00;52033.99;105635;1260;60796;-46
2023/11/26 00:22:05;;;;;;;23.30;11.20;;;;;;;-147.86;100.00;52067.34;105603;1254;72889;-46
2023/11/26 00:24:33;;;;;;;18.90;10.90;;;;;;;-147.86;100.00;52077.55;105692;1259;64008;-44
2023/11/26 00:27:02;;;;;;;24.30;11.10;;;;;;;-147.86;100.00;52075.98;105601;1260;70628;-47
2023/11/26 00:29:32;;;;;;;19.90;10.90;;;;;;;-147.86;100.00;52105.41;105666;1255;60849;-47
2023/11/26 00:32:00;;;;;;;16.90;9.60;;;;;;;-147.86;100.00;52122.68;105617;1260;60594;-44
2023/11/26 00:34:27;;;;;;;23.30;10.50;;;;;;;-147.86;100.00;52142.70;105646;1255;73873;-47
2023/11/26 00:36:58;;;;;;;23.90;11.10;;;;;;;-147.86;100.00;52163.11;105610;1255;64040;-45
2023/11/26 00:39:26;;;;;;;20.10;10.70;;;;;;;-147.86;100.00;52171.74;105634;1256;71749;-47
2023/11/26 00:41:54;;;;;;;19.00;9.80;;;;;;;-147.86;100.00;52200.39;105511;1257;60459;-47
2023/11/26 00:44:25;;;;;;;16.00;9.10;;;;;;;-147.86;100.00;52198.43;105693;1253;60344;-44
2023/11/26 00:46:53;;;;;;;18.30;9.40;;;;;;;-147.86;100.00;52228.25;105655;1254;73721;-45
2023/11/26 00:49:21;;;;;;;18.50;9.80;;;;;;;-147.86;100.00;52231.40;105659;1253;63943;-47
2023/11/26 00:51:50;;;;;;;16.20;9.60;;;;;;;-147.86;100.00;52252.98;105598;1257;71462;-47
2023/11/26 00:54:18;;;;;;;15.70;9.80;;;;;;;-147.86;100.00;52265.15;105551;1258;60505;-45
2023/11/26 00:56:46;;;;;;;13.70;9.30;;;;;;;-147.86;100.00;52282.02;105635;1254;60415;-48
2023/11/26 00:59:14;;;;;;;16.40;9.30;;;;;;;-147.86;100.00;52319.31;105583;1262;71880;-48
2023/11/26 01:01:43;;;;;;;16.80;9.10;;;;;;;-147.86;100.00;52302.82;105619;1261;64001;-45
2023/11/26 01:04:11;;;;;;;17.70;8.90;;;;;;;-147.86;100.00;52327.94;105651;1254;71398;-45
2023/11/26 01:06:40;;;;;;;19.50;9.30;;;;;;;-147.86;100.00;52317.74;105593;1257;60517;-47
2023/11/26 01:09:07;;;;;;;15.90;9.40;;;;;;;-147.86;100.00;52347.18;105687;1256;60464;-45
2023/11/26 01:11:37;;;;;;;17.40;9.00;;;;;;;-147.86;100.00;52357.77;105643;1254;72607;-45
2023/11/26 01:14:06;;;;;;;15.30;8.30;;;;;;;-147.86;100.00;52401.73;105697;1259;64012;-45
2023/11/26 01:16:34;;;;;;;14.40;7.90;;;;;;;-147.86;100.00;52398.98;105717;1256;70537;-44
2023/11/26 01:19:02;;;;;;;18.10;9.00;;;;;;;-147.86;100.00;52393.88;105663;1257;60485;-46
2023/11/26 01:21:31;;;;;;;14.80;9.40;;;;;;;-147.86;100.00;52412.73;105675;1260;60402;-47
2023/11/26 01:23:59;;;;;;;17.30;9.10;;;;;;;-147.86;100.00;52434.71;105706;1254;72576;-46
2023/11/26 01:26:26;;;;;;;19.10;9.70;;;;;;;-147.86;100.00;52434.31;105641;1260;64360;-46
2023/11/26 01:28:55;;;;;;;16.10;8.30;;;;;;;-147.86;100.00;52435.09;105636;1260;71441;-47
2023/11/26 01:31:23;;;;;;;13.00;8.80;;;;;;;-147.86;100.00;52450.40;105656;1259;60613;-44
2023/11/26 01:33:51;;;;;;;14.30;9.10;;;;;;;-147.86;100.00;52473.56;105610;1256;60451;-46
2023/11/26 01:36:19;;;;;;;13.70;8.40;;;;;;;-147.86;100.00;52472.38;105683;1254;72585;-44
2023/11/26 01:38:46;;;;;;;19.00;9.50;;;;;;;-147.86;100.00;52470.42;105622;1255;64038;-46
2023/11/26 01:41:14;;;;;;;13.80;9.30;;;;;;;-147.86;100.00;52494.36;105632;1256;71462;-47
2023/11/26 01:43:42;;;;;;;20.10;9.90;;;;;;;-147.86;100.00;52485.73;105603;1257;60447;-44
2023/11/26 01:46:11;;;;;;;19.70;9.80;;;;;;;-147.86;100.00;52504.96;105693;1260;60352;-47
2023/11/26 01:48:39;;;;;;;20.00;11.20;;;;;;;-147.86;100.00;52498.29;105642;1254;72431;-47
2023/11/26 01:51:11;;;;;;;14.90;10.00;;;;;;;-147.86;100.00;52507.71;105599;1260;65172;-44
2023/11/26 01:53:42;;;;;;;18.10;9.50;;;;;;;-147.86;100.00;52519.48;105664;1256;70801;-46
2023/11/26 01:56:10;;;;;;;20.80;10.30;;;;;;;-147.86;100.00;52530.08;105723;1254;61027;-47
2023/11/26 01:58:38;;;;;;;18.60;9.40;;;;;;;-147.86;100.00;52518.70;105607;1256;60633;-47
2023/11/26 02:01:05;;;;;;;17.50;10.10;;;;;;;-147.86;100.00;52536.76;105337;1254;72812;-43
2023/11/26 02:03:33;;;;;;;13.30;9.00;;;;;;;-147.86;100.00;52542.64;105577;1262;65205;-45
2023/11/26 02:06:01;;;;;;;15.60;9.10;;;;;;;-147.86;100.00;52546.56;105564;1259;71401;-45
2023/11/26 02:08:31;;;;;;;16.10;9.30;;;;;;;-147.86;100.00;52553.63;105520;1256;60936;-47
2023/11/26 02:10:59;;;;;;;15.40;9.40;;;;;;;-147.86;100.00;52588.96;105660;1260;60489;-44
2023/11/26 02:13:27;;;;;;;17.90;9.10;;;;;;;-147.86;100.00;52581.50;105620;1261;72858;-45
2023/11/26 02:15:55;;;;;;;27.10;10.90;;;;;;;-147.86;100.00;52591.31;105654;1260;64007;-45
2023/11/26 02:18:25;;;;;;;25.10;11.70;;;;;;;-147.86;100.00;52591.31;105633;1262;72981;-46
2023/11/26 02:20:52;;;;;;;18.50;10.10;;;;;;;-147.86;100.00;52617.21;105542;1262;60525;-44
2023/11/26 02:23:20;;;;;;;20.00;9.10;;;;;;;-147.86;100.00;52579.54;105536;1262;60352;-42
2023/11/26 02:25:48;;;;;;;16.80;8.60;;;;;;;-147.86;100.00;52592.49;105542;1254;73356;-46
2023/11/26 02:28:16;;;;;;;16.90;8.20;;;;;;;-147.86;100.00;52613.68;105646;1260;65133;-44
2023/11/26 02:30:43;;;;;;;17.50;8.20;;;;;;;-147.86;100.00;52607.79;105625;1257;72650;-46
2023/11/26 02:33:11;;;;;;;15.20;7.90;;;;;;;-147.86;100.00;52622.32;105657;1260;60528;-46
2023/11/26 02:35:39;;;;;;;13.60;7.20;;;;;;;-147.86;100.00;52614.46;105579;1262;60429;-45
2023/11/26 02:38:06;;;;;;;13.90;6.60;;;;;;;-147.86;100.00;52628.21;105600;1260;72113;-46
2023/11/26 02:40:34;;;;;;;13.50;6.60;;;;;;;-147.86;100.00;52619.96;105565;1262;65156;-47
2023/11/26 02:43:02;;;;;;;9.70;5.80;;;;;;;-147.86;100.00;52615.64;105626;1256;71635;-45
2023/11/26 02:45:30;;;;;;;10.20;5.90;;;;;;;-147.86;100.00;52626.24;105622;1256;60530;-44
2023/11/26 02:47:59;;;;;;;12.10;6.20;;;;;;;-147.86;100.00;52629.38;105634;1255;60338;-45
2023/11/26 02:50:26;;;;;;;9.30;5.70;;;;;;;-147.86;100.00;52645.48;105589;1256;72621;-48
2023/11/26 02:52:54;;;;;;;13.70;6.60;;;;;;;-147.86;100.00;52631.35;105522;1262;65184;-44
2023/11/26 02:55:22;;;;;;;12.00;6.10;;;;;;;-147.86;100.00;52645.48;105621;1257;72688;-45
2023/11/26 02:57:50;;;;;;;7.70;5.40;;;;;;;-147.86;100.00;52647.05;105613;1256;60843;-44
2023/11/26 03:00:20;;;;;;;11.70;7.00;;;;;;;-147.86;100.00;52656.07;105592;1260;60339;-45
2023/11/26 03:02:48;;;;;;;14.80;6.10;;;;;;;-147.86;100.00;52650.97;105605;1262;73826;-45
2023/11/26 03:05:17;;;;;;;11.00;6.90;;;;;;;-147.86;100.00;52669.81;105595;1261;63933;-47
2023/11/26 03:07:46;;;;;;;10.00;5.90;;;;;;;-147.86;100.00;52669.81;105632;1256;72594;-44
2023/11/26 03:13:07;;;;;;;11.40;6.40;;;;;;;-147.86;100.00;52678.05;105624;1262;60435;-43
2023/11/26 03:15:41;;;;;;;10.10;6.40;;;;;;;-147.86;100.00;52694.54;105647;1255;72587;-47
2023/11/26 03:18:12;;;;;;;7.20;5.90;;;;;;;-147.86;100.00;52701.61;105646;1256;63947;-44
2023/11/26 03:20:41;;;;;;;10.10;6.50;;;;;;;-147.86;100.00;52706.32;105646;1257;72657;-46
2023/11/26 03:23:09;;;;;;;35.70;10.20;;;;;;;-147.86;100.00;52705.93;105627;1261;60532;-45
2023/11/26 03:25:38;;;;;;;16.10;7.20;;;;;;;-147.86;100.00;52703.18;105677;1260;60385;-45
2023/11/26 03:28:06;;;;;;;9.50;6.30;;;;;;;-147.86;100.00;52716.52;105655;1259;73779;-44
2023/11/26 03:30:34;;;;;;;12.50;6.30;;;;;;;-147.86;100.00;52712.21;105515;1261;64078;-48
2023/11/26 03:33:02;;;;;;;10.40;5.60;;;;;;;-147.86;100.00;52714.95;105612;1261;71402;-47
2023/11/26 03:35:30;;;;;;;10.70;6.00;;;;;;;-147.86;100.00;52754.60;105633;1256;60821;-44
2023/11/26 03:37:58;;;;;;;12.00;6.40;;;;;;;-147.86;100.00;52719.66;105749;1260;60435;-46
2023/11/26 03:40:26;;;;;;;11.90;6.30;;;;;;;-147.86;100.00;52723.20;105559;1256;72542;-47
2023/11/26 03:42:54;;;;;;;9.20;6.30;;;;;;;-147.86;100.00;52723.20;105657;1260;65112;-47
2023/11/26 03:45:22;;;;;;;13.70;6.40;;;;;;;-147.86;100.00;52749.49;105571;1258;71441;-45
2023/11/26 03:47:50;;;;;;;11.60;6.20;;;;;;;-147.86;100.00;52740.86;105609;1255;60435;-45
2023/11/26 03:50:19;;;;;;;12.30;6.40;;;;;;;-147.86;100.00;52739.29;105608;1256;60480;-45
2023/11/26 03:52:48;;;;;;;13.60;6.90;;;;;;;-147.86;100.00;52752.24;105629;1257;72568;-44
2023/11/26 03:55:16;;;;;;;11.20;6.70;;;;;;;-147.86;100.00;52762.84;105528;1256;63908;-46
2023/11/26 03:57:44;;;;;;;9.10;6.50;;;;;;;-147.86;100.00;52766.76;105623;1259;72640;-44
2023/11/26 04:00:12;;;;;;;11.50;6.30;;;;;;;-147.86;100.00;52760.88;105588;1259;60672;-44
2023/11/26 04:02:41;;;;;;;15.60;7.10;;;;;;;-147.86;100.00;52768.73;105606;1259;60401;-45
2023/11/26 04:05:10;;;;;;;9.40;6.90;;;;;;;-147.86;100.00;52785.21;105605;1256;72578;-45
2023/11/26 04:07:38;;;;;;;6.90;5.90;;;;;;;-147.86;100.00;52803.66;105633;1262;63940;-46
2023/11/26 04:10:08;;;;;;;11.70;6.90;;;;;;;-147.86;100.00;52786.78;105571;1256;71412;-46
2023/11/26 04:12:39;;;;;;;11.10;6.50;;;;;;;-147.86;100.00;52795.81;105581;1256;60539;-44
2023/11/26 04:15:09;;;;;;;8.40;5.60;;;;;;;-147.86;100.00;52820.15;105652;1259;60322;-44
2023/11/26 04:17:37;;;;;;;13.70;6.70;;;;;;;-147.86;100.00;52824.07;105622;1256;72618;-45
2023/11/26 04:20:05;;;;;;;11.00;6.70;;;;;;;-147.86;100.00;52823.68;105590;1255;63910;-47
2023/11/26 04:22:33;;;;;;;12.20;6.80;;;;;;;-147.86;100.00;52818.97;105627;1258;71485;-46
2023/11/26 04:25:01;;;;;;;13.50;6.90;;;;;;;-147.86;100.00;52838.21;105622;1256;60483;-47
2023/11/26 04:27:30;;;;;;;12.20;6.40;;;;;;;-147.86;100.00;52846.05;105610;1256;60388;-47
2023/11/26 04:29:58;;;;;;;11.00;7.10;;;;;;;-147.86;100.00;52853.91;105627;1259;72650;-46
2023/11/26 04:32:25;;;;;;;12.70;6.30;;;;;;;-147.86;100.00;52846.45;105583;1257;65142;-44
2023/11/26 04:34:53;;;;;;;13.10;6.00;;;;;;;-147.86;100.00;52859.40;105585;1256;72809;-47
2023/11/26 04:37:21;;;;;;;11.60;6.50;;;;;;;-147.86;100.00;52853.51;105583;1256;60539;-46
2023/11/26 04:39:49;;;;;;;9.80;6.30;;;;;;;-147.86;100.00;52868.82;105680;1262;60581;-44
2023/11/26 04:42:17;;;;;;;11.60;6.40;;;;;;;-147.86;100.00;52886.88;105588;1257;72606;-45
2023/11/26 04:44:45;;;;;;;10.40;5.90;;;;;;;-147.86;100.00;52884.52;105646;1257;64261;-45
2023/11/26 04:47:14;;;;;;;8.70;6.00;;;;;;;-147.86;100.00;52882.17;105587;1256;72639;-44
2023/11/26 04:49:42;;;;;;;11.80;6.60;;;;;;;-147.86;100.00;52900.62;105650;1260;60776;-46
2023/11/26 04:52:10;;;;;;;11.70;5.60;;;;;;;-147.86;100.00;52897.87;105572;1260;60416;-47
2023/11/26 04:54:37;;;;;;;9.10;5.70;;;;;;;-147.86;100.00;52912.39;105572;1258;72900;-47
2023/11/26 04:57:05;;;;;;;10.80;6.50;;;;;;;-147.86;100.00;52918.68;105592;1256;65378;-46
2023/11/26 04:59:35;;;;;;;10.10;6.30;;;;;;;-147.86;100.00;52926.13;105627;1257;71499;-46
2023/11/26 05:02:06;;;;;;;11.20;6.00;;;;;;;-147.86;100.00;52931.63;105590;1256;60478;-46
2023/11/26 05:04:34;;;;;;;11.60;6.20;;;;;;;-147.86;100.00;52933.20;105650;1257;60522;-46
2023/11/26 05:07:05;;;;;;;8.50;6.80;;;;;;;-147.86;100.00;52917.10;105590;1257;72698;-45
2023/11/26 05:09:32;;;;;;;14.30;6.50;;;;;;;-147.86;100.00;52944.58;105650;1256;64122;-47
2023/11/26 05:12:03;;;;;;;9.70;6.30;;;;;;;-147.86;100.00;52935.55;105570;1257;71588;-45
2023/11/26 05:14:31;;;;;;;11.20;7.20;;;;;;;-147.86;100.00;52952.04;105595;1256;60886;-47
2023/11/26 05:16:59;;;;;;;9.40;6.70;;;;;;;-147.86;100.00;52932.02;105641;1259;60403;-44
2023/11/26 05:19:27;;;;;;;11.70;7.10;;;;;;;-147.86;100.00;52932.02;105606;1256;72563;-46
2023/11/26 05:21:55;;;;;;;10.60;6.70;;;;;;;-147.86;100.00;52948.11;105626;1257;63949;-44
2023/11/26 05:24:22;;;;;;;11.30;7.20;;;;;;;-147.86;100.00;52941.45;105584;1256;71971;-45
2023/11/26 05:26:50;;;;;;;12.90;7.20;;;;;;;-147.86;100.00;52957.15;105597;1255;60869;-44
2023/11/26 05:29:18;;;;;;;12.90;7.30;;;;;;;-147.86;100.00;52954.79;105612;1261;60428;-45
2023/11/26 05:31:47;;;;;;;11.90;7.50;;;;;;;-147.86;100.00;52952.44;105640;1256;72626;-47
2023/11/26 05:34:15;;;;;;;14.10;7.30;;;;;;;-147.86;100.00;52947.73;105609;1256;65233;-45
2023/11/26 05:36:43;;;;;;;13.00;7.90;;;;;;;-147.86;100.00;52964.21;105592;1256;71474;-44
2023/11/26 05:39:11;;;;;;;13.80;8.70;;;;;;;-147.86;100.00;52956.75;105630;1256;60840;-48
2023/11/26 05:41:39;;;;;;;12.10;8.10;;;;;;;-147.86;100.00;52957.54;105611;1260;60411;-44
2023/11/26 05:44:08;;;;;;;11.40;7.70;;;;;;;-147.86;100.00;52974.02;105605;1261;73852;-46
2023/11/26 05:46:36;;;;;;;9.60;7.10;;;;;;;-147.86;100.00;52967.34;105651;1256;65143;-45
2023/11/26 05:49:05;;;;;;;13.00;7.70;;;;;;;-147.86;100.00;52977.55;105620;1257;72612;-46
2023/11/26 05:51:34;;;;;;;14.70;8.00;;;;;;;-147.86;100.00;52969.31;105621;1257;60492;-46
2023/11/26 05:54:02;;;;;;;13.50;7.30;;;;;;;-147.86;100.00;52991.69;105597;1258;60475;-45
2023/11/26 05:56:30;;;;;;;12.50;8.00;;;;;;;-147.86;100.00;52982.66;105600;1259;73809;-43
2023/11/26 05:58:58;;;;;;;11.20;7.70;;;;;;;-147.86;100.00;53002.68;105576;1256;64706;-44
2023/11/26 06:01:25;;;;;;;11.30;8.10;;;;;;;-147.86;100.00;52994.82;105582;1257;71667;-45
2023/11/26 06:03:54;;;;;;;13.30;8.00;;;;;;;-147.86;100.00;52986.20;105582;1257;61012;-46
2023/11/26 06:06:22;;;;;;;8.20;7.00;;;;;;;-147.86;100.00;52989.33;105646;1258;60764;-47
2023/11/26 06:08:51;;;;;;;9.50;7.10;;;;;;;-147.86;100.00;53017.20;105585;1256;72616;-44
2023/11/26 06:11:19;;;;;;;9.60;6.90;;;;;;;-147.86;100.00;53007.78;105627;1261;63911;-45
2023/11/26 06:13:46;;;;;;;12.20;7.90;;;;;;;-147.86;100.00;53009.74;105573;1256;71594;-46
2023/11/26 06:16:14;;;;;;;10.00;6.70;;;;;;;-147.86;100.00;53028.20;105621;1257;60470;-43
2023/11/26 06:18:42;;;;;;;14.20;7.60;;;;;;;-147.86;100.00;53043.51;105231;1256;60576;-45
2023/11/26 06:21:09;;;;;;;11.60;7.10;;;;;;;-147.86;100.00;53031.73;105147;1257;72803;-46
2023/11/26 06:23:37;;;;;;;12.40;7.70;;;;;;;-147.86;100.00;53042.72;105578;1260;63924;-44
2023/11/26 06:26:05;;;;;;;14.30;7.50;;;;;;;-147.86;100.00;53039.97;105791;1253;72674;-48
2023/11/26 06:28:32;;;;;;;11.50;7.60;;;;;;;-147.86;100.00;53053.32;105727;1258;60853;-50
2023/11/26 06:31:00;;;;;;;15.00;7.40;;;;;;;-147.86;100.00;53037.23;105741;1254;60495;-50
2023/11/26 06:33:27;;;;;;;9.70;6.90;;;;;;;-147.86;100.00;53050.96;105771;1257;73813;-46
2023/11/26 06:35:55;;;;;;;11.60;7.80;;;;;;;-147.86;100.00;53059.99;105747;1254;63948;-45
2023/11/26 06:38:23;;;;;;;10.00;6.60;;;;;;;-147.86;100.00;53032.51;105734;1254;70662;-43
2023/11/26 06:40:51;;;;;;;9.50;6.90;;;;;;;-147.86;100.00;53033.70;105777;1252;60416;-43
2023/11/26 06:43:18;;;;;;;9.10;7.00;;;;;;;-147.86;100.00;53018.38;105861;1254;60383;-45
2023/11/26 06:45:46;;;;;;;10.80;7.60;;;;;;;-147.86;100.00;53014.85;105809;1257;73884;-46
2023/11/26 06:48:14;;;;;;;7.50;6.80;;;;;;;-147.86;100.00;53021.52;105908;1258;64011;-47
2023/11/26 06:50:42;;;;;;;11.30;7.90;;;;;;;-147.86;100.00;53009.35;105769;1253;71429;-43
2023/11/26 06:53:10;;;;;;;12.40;7.90;;;;;;;-147.86;100.00;52991.29;105774;1259;60549;-46
2023/11/26 06:55:38;;;;;;;13.80;8.80;;;;;;;-147.86;100.00;53001.11;105909;1256;60500;-44
2023/11/26 06:58:06;;;;;;;13.30;9.10;;;;;;;-147.86;100.00;53005.82;105870;1254;73852;-45
2023/11/26 07:00:34;;;;;;;13.20;9.00;;;;;;;-147.86;100.00;53012.89;105811;1257;63017;-45
2023/11/26 07:03:02;;;;;;;11.00;8.30;;;;;;;-147.86;100.00;53012.49;105792;1259;72671;-46
2023/11/26 07:05:31;;;;;;;12.90;8.00;;;;;;;-147.86;100.00;53025.05;105861;1256;60527;-46
2023/11/26 07:07:59;;;;;;;11.60;8.20;;;;;;;-147.86;100.00;53026.63;105868;1253;60520;-46
2023/11/26 07:10:27;;;;;;;11.70;8.00;;;;;;;-147.86;100.00;53008.96;105781;1254;72688;-47
2023/11/26 07:12:57;;;;;;;10.30;8.50;;;;;;;-147.86;100.00;53023.09;105824;1259;63551;-45
2023/11/26 07:15:25;;;;;;;10.50;7.70;;;;;;;-147.86;100.00;53034.87;105796;1254;72424;-47
2023/11/26 07:17:53;;;;;;;11.20;6.90;;;;;;;-147.86;100.00;53029.38;105830;1257;60534;-45
2023/11/26 07:20:21;;;;;;;12.90;8.00;;;;;;;-147.86;100.00;53033.70;105825;1257;60414;-43
2023/11/26 07:22:49;;;;;;;12.80;8.00;;;;;;;-147.86;100.00;53034.48;105828;1258;72588;-46
2023/11/26 07:25:17;;;;;;;9.90;7.10;;;;;;;-147.86;100.00;53049.00;105842;1253;65266;-46
2023/11/26 07:27:45;;;;;;;10.40;7.20;;;;;;;-147.86;100.00;53053.31;105886;1254;71435;-44
2023/11/26 07:30:14;;;;;;;10.30;7.70;;;;;;;-147.86;100.00;53052.93;105839;1256;60524;-44
2023/11/26 07:32:50;;;;;;;9.10;6.70;;;;;;;-147.86;100.00;53056.07;105845;1253;60616;-43
2023/11/26 07:35:18;;;;;;;11.90;7.50;;;;;;;-147.86;100.00;53078.84;105839;1256;73894;-47
2023/11/26 07:37:47;;;;;;;10.50;7.30;;;;;;;-147.86;100.00;53062.35;105892;1253;65298;-47
2023/11/26 07:40:14;;;;;;;9.80;7.00;;;;;;;-147.86;100.00;53069.02;105840;1257;71850;-46
2023/11/26 07:42:42;;;;;;;8.80;7.10;;;;;;;-147.86;100.00;53086.29;105665;1258;60623;-45
2023/11/26 07:45:11;;;;;;;9.00;6.60;;;;;;;-147.86;100.00;53085.51;105753;1258;60343;-47
2023/11/26 07:47:39;;;;;;;12.20;7.30;;;;;;;-147.86;100.00;53093.36;105810;1251;72715;-43
2023/11/26 07:50:07;;;;;;;9.80;6.90;;;;;;;-147.86;100.00;53086.68;105776;1258;63921;-45
2023/11/26 07:52:36;;;;;;;9.70;6.90;;;;;;;-147.86;100.00;53084.33;105835;1257;72587;-45
2023/11/26 07:55:05;;;;;;;10.40;7.20;;;;;;;-147.86;100.00;53094.54;105527;1258;348410;-46
2023/11/26 07:57:34;;;;;;;9.40;7.40;;;;;;;-147.86;100.00;53100.43;105828;1254;60536;-47
2023/11/26 08:01:19;;;;;;;10.10;6.60;;;;;;;-147.86;100.00;52518.21;102471;1296;603353;-42
2023/11/26 08:03:49;;;;;;;11.30;7.10;;;;;;;-147.86;100.00;53233.11;105610;1260;61153;-46
2023/11/26 08:06:17;;;;;;;10.20;6.60;;;;;;;-147.86;100.00;53196.21;105658;1257;60276;-46
2023/11/26 08:08:44;;;;;;;11.00;7.60;;;;;;;-147.86;100.00;53168.73;105624;1258;72137;-45
2023/11/26 08:11:12;;;;;;;10.40;7.40;;;;;;;-147.86;100.00;53173.45;105688;1260;64984;-43
2023/11/26 08:13:41;;;;;;;10.40;7.30;;;;;;;-147.86;100.00;53178.54;105460;1260;232033;-44
2023/11/26 08:16:09;;;;;;;10.70;7.30;;;;;;;-147.86;100.00;53165.59;105739;1260;61165;-43
2023/11/26 08:18:36;;;;;;;8.90;6.20;;;;;;;-147.86;100.00;53168.73;105693;1254;60377;-44
2023/11/26 08:21:06;;;;;;;9.40;6.60;;;;;;;-147.86;100.00;53163.24;105760;1254;72051;-43
2023/11/26 08:23:41;;;;;;;9.60;6.60;;;;;;;-147.86;100.00;53167.95;105879;1258;65325;-45
2023/11/26 08:26:09;;;;;;;7.00;6.00;;;;;;;-147.86;100.00;53165.20;105749;1254;72592;-43
2023/11/26 08:28:41;;;;;;;7.00;6.30;;;;;;;-147.86;100.00;53150.27;105833;1253;60985;-47
2023/11/26 08:31:10;;;;;;;11.80;5.60;;;;;;;-147.86;100.00;53170.30;105798;1255;60335;-44
2023/11/26 08:33:42;;;;;;;7.30;5.90;;;;;;;-147.86;100.00;53162.05;105832;1256;73111;-46
2023/11/26 08:36:14;;;;;;;7.70;6.20;;;;;;;-147.86;100.00;53160.09;105834;1257;65468;-44
2023/11/26 08:38:41;;;;;;;8.20;6.20;;;;;;;-147.86;100.00;53161.27;105906;1254;72823;-45
2023/11/26 08:41:13;;;;;;;8.50;7.20;;;;;;;-147.86;100.00;53169.52;105849;1257;61552;-45
2023/11/26 08:43:43;;;;;;;10.30;7.50;;;;;;;-147.86;100.00;53169.51;105840;1254;60481;-47
2023/11/26 08:46:12;;;;;;;11.40;8.40;;;;;;;-147.86;100.00;53166.38;105828;1258;72074;-43
2023/11/26 08:48:44;;;;;;;7.30;6.40;;;;;;;-147.86;100.00;53162.05;105786;1254;65422;-43
2023/11/26 08:51:11;;;;;;;8.00;6.50;;;;;;;-147.86;100.00;53161.66;105864;1254;72491;-44
2023/11/26 08:53:38;;;;;;;10.80;6.20;;;;;;;-147.86;100.00;53179.34;105858;1257;61296;-47
2023/11/26 08:56:06;;;;;;;8.80;6.20;;;;;;;-147.86;100.00;53162.05;105864;1254;60768;-44
2023/11/26 08:58:33;;;;;;;7.20;6.50;;;;;;;-147.86;100.00;53164.80;105832;1254;73033;-44
2023/11/26 09:01:00;;;;;;;7.60;6.30;;;;;;;-147.86;100.00;53164.02;105842;1254;65438;-43
2023/11/26 09:03:28;;;;;;;7.70;6.30;;;;;;;-147.86;100.00;53195.43;105628;1254;72820;-44
2023/11/26 09:05:55;;;;;;;7.00;6.20;;;;;;;-147.86;100.00;53170.70;105682;1259;61172;-46
2023/11/26 09:08:23;;;;;;;6.70;5.90;;;;;;;-147.86;100.00;53172.66;105754;1254;60257;-44
2023/11/26 09:10:50;;;;;;;8.40;5.90;;;;;;;-147.86;100.00;53195.03;105803;1257;72997;-44
2023/11/26 09:13:17;;;;;;;7.80;6.40;;;;;;;-147.86;100.00;53178.94;105748;1257;65325;-43
2023/11/26 09:15:44;;;;;;;6.30;5.50;;;;;;;-147.86;100.00;53211.91;105760;1254;72648;-44
2023/11/26 09:18:11;;;;;;;6.80;5.50;;;;;;;-147.86;100.00;53193.46;105746;1257;60943;-46
2023/11/26 09:20:38;;;;;;;7.50;5.40;;;;;;;-147.86;100.00;53202.89;105977;1254;60249;-46
2023/11/26 09:23:07;;;;;;;6.80;5.80;;;;;;;-147.86;100.00;53208.38;105788;1254;72923;-45
2023/11/26 09:25:34;;;;;;;6.90;5.80;;;;;;;-147.86;100.00;53210.34;105791;1258;65517;-45
2023/11/26 09:28:01;;;;;;;7.70;5.70;;;;;;;-147.86;100.00;53202.49;105857;1254;72762;-45
2023/11/26 09:30:28;;;;;;;13.40;7.60;;;;;;;-147.86;100.00;53217.01;105776;1258;61534;-46
2023/11/26 09:32:56;;;;;;;6.60;5.70;;;;;;;-147.86;100.00;53217.02;105744;1253;60260;-43
2023/11/26 09:35:23;;;;;;;11.80;7.00;;;;;;;-147.86;100.00;53213.09;105737;1254;72035;-46
2023/11/26 09:37:50;;;;;;;5.90;4.80;;;;;;;-147.86;100.00;53201.31;105806;1257;65317;-46
2023/11/26 09:40:17;;;;;;;7.00;4.30;;;;;;;-147.86;100.00;53213.09;105733;1254;72373;-44
2023/11/26 09:42:50;;;;;;;6.20;5.10;;;;;;;-147.86;100.00;53218.20;105835;1254;61130;-46
2023/11/26 09:45:18;;;;;;;8.00;5.70;;;;;;;-147.86;100.00;53215.45;105796;1258;59560;-47
2023/11/26 09:47:45;;;;;;;6.50;5.60;;;;;;;-147.86;100.00;53209.95;105827;1258;72725;-44
2023/11/26 09:50:13;;;;;;;6.90;6.00;;;;;;;-147.86;100.00;53205.64;105798;1254;65439;-45
2023/11/26 09:52:40;;;;;;;5.00;4.50;;;;;;;-147.86;100.00;53215.84;105755;1254;73936;-44
2023/11/26 09:55:08;;;;;;;6.70;5.70;;;;;;;-147.86;100.00;53220.95;105787;1254;60973;-44
2023/11/26 09:57:40;;;;;;;5.20;4.50;;;;;;;-147.86;100.00;53230.76;105796;1260;59626;-46
2023/11/26 10:00:10;;;;;;;6.40;5.80;;;;;;;-147.86;100.00;53229.98;105811;1254;73041;-45
2023/11/26 10:02:37;;;;;;;9.70;6.80;;;;;;;-147.86;100.00;53239.39;105792;1254;66385;-47
2023/11/26 10:05:06;;;;;;;5.60;5.00;;;;;;;-147.86;100.00;53230.36;105797;1254;72320;-44
2023/11/26 10:07:35;;;;;;;7.10;5.10;;;;;;;-147.86;100.00;53227.23;105681;1254;59765;-45
2023/11/26 10:10:09;;;;;;;5.60;5.00;;;;;;;-147.86;100.00;53232.72;105773;1257;59615;-44
2023/11/26 10:12:55;;;;;;;5.50;5.00;;;;;;;-147.86;100.00;53238.21;105828;1254;73001;-46
2023/11/26 10:15:24;;;;;;;6.00;5.20;;;;;;;-147.86;100.00;53249.99;105786;1258;65490;-45
2023/11/26 10:17:59;;;;;;;7.40;6.20;;;;;;;-147.86;100.00;53229.98;105791;1254;72671;-46
2023/11/26 10:20:26;;;;;;;;;;;;;;;-147.86;100.00;53254.70;105782;1255;60153;-43
2023/11/26 10:22:53;;;;;;;6.70;5.40;;;;;;;-147.86;100.00;53253.52;105751;1254;60332;-43
2023/11/26 10:25:21;;;;;;;5.80;4.30;;;;;;;-147.86;100.00;53239.39;105749;1254;72991;-47
2023/11/26 10:27:48;;;;;;;5.50;4.80;;;;;;;-147.86;100.00;53249.21;105813;1254;64004;-46
2023/11/26 10:30:33;;;;;;;6.00;4.50;;;;;;;-147.86;100.00;53251.56;105672;1260;72502;-46
2023/11/26 10:33:08;;;;;;;5.20;4.60;;;;;;;-147.86;100.00;53276.69;105743;1257;61042;-46
2023/11/26 10:35:51;;;;;;;5.80;4.80;;;;;;;-147.86;100.00;53275.12;105828;1257;59622;-43
2023/11/26 10:38:34;;;;;;;4.60;4.20;;;;;;;-147.86;100.00;53283.36;105864;1254;72986;-46
2023/11/26 10:41:00;;;;;;;5.90;4.50;;;;;;;-147.86;100.00;53271.20;105804;1254;65610;-45
2023/11/26 10:43:28;;;;;;;4.90;3.70;;;;;;;-147.86;100.00;53266.88;105765;1254;72670;-45
2023/11/26 10:46:03;;;;;;;4.40;3.90;;;;;;;-147.86;100.00;53292.00;105757;1257;61219;-46
2023/11/26 10:48:30;;;;;;;4.20;3.40;;;;;;;-147.86;100.00;53274.73;105737;1254;60365;-46
2023/11/26 10:51:25;;;;;;;3.60;3.40;;;;;;;-147.86;100.00;53294.74;105682;1254;72995;-44
2023/11/26 10:54:10;;;;;;;3.20;2.80;;;;;;;-147.86;100.00;53313.20;105710;1260;64004;-45
2023/11/26 10:56:41;;;;;;;3.90;3.70;;;;;;;-147.86;100.00;53305.34;105732;1254;72548;-42
2023/11/26 10:59:09;;;;;;;3.00;2.80;;;;;;;-147.86;100.00;53302.21;105819;1257;60953;-41
2023/11/26 11:01:37;;;;;;;3.30;3.10;;;;;;;-147.86;100.00;53311.63;105767;1254;60127;-44
2023/11/26 11:04:13;;;;;;;3.00;2.80;;;;;;;-147.86;100.00;53319.09;105760;1257;72718;-44
2023/11/26 11:06:43;;;;;;;;;;;;;;;-147.86;100.00;53315.16;105768;1254;64147;-43
2023/11/26 11:09:17;;;;;;;3.10;2.80;;;;;;;-147.86;100.00;53313.59;105768;1254;73073;-44